Time;durP1;ratioP1;P1;durP2;ratioP2;P2;SDS_P1;SDS_P2;PMS_P1;PMS_P2;Temp;Humidity;BMP_temperature;BMP_pressure;BME280_temperature;BME280_humidity;BME280_pressure;Samples;Min_cycle;Max_cycle;Signal;HPM_P1;HPM_P2
2022/07/30 00:01:54;;;;;;;;;;;;;;;26.99;87.07;99003.84;5054824;28;19922;-54
2022/07/30 00:04:20;;;;;;;;;;;;;;;27.04;86.72;98998.91;5056006;28;20012;-53
2022/07/30 00:06:45;;;;;;;;;;;;;;;27.04;86.27;99001.56;5055946;28;19920;-54
2022/07/30 00:09:10;;;;;;;;;;;;;;;26.90;86.76;99002.13;5054974;28;19924;-54
2022/07/30 00:11:35;;;;;;;;;;;;;;;26.67;87.97;99002.59;5055893;28;19917;-53
2022/07/30 00:14:01;;;;;;;;;;;;;;;26.67;89.29;98999.94;5055820;28;20472;-54
2022/07/30 00:16:26;;;;;;;;;;;;;;;26.53;89.16;98997.81;5056109;28;20270;-54
2022/07/30 00:18:51;;;;;;;;;;;;;;;26.14;89.77;98998.09;5055831;28;19973;-52
2022/07/30 00:21:17;;;;;;;;;;;;;;;26.14;92.32;99006.03;5055971;28;20695;-54
2022/07/30 00:23:42;;;;;;;;;;;;;;;26.36;90.76;98998.63;5054622;28;20419;-54
2022/07/30 00:26:07;;;;;;;;;;;;;;;26.48;90.30;98997.44;5055222;28;19920;-54
2022/07/30 00:28:32;;;;;;;;;;;;;;;26.55;89.88;98992.41;5056036;28;19975;-54
2022/07/30 00:30:57;;;;;;;;;;;;;;;26.60;89.52;99001.53;5054942;28;19917;-53
2022/07/30 00:33:23;;;;;;;;;;;;;;;26.50;89.86;98990.19;5055848;28;19923;-54
2022/07/30 00:35:48;;;;;;;;;;;;;;;26.14;91.63;98995.47;5053763;28;19923;-55
2022/07/30 00:38:13;;;;;;;;;;;;;;;26.26;91.02;98991.63;5054605;28;20019;-54
2022/07/30 00:40:39;;;;;;;;;;;;;;;26.39;91.99;98990.41;5054393;28;19961;-53
2022/07/30 00:43:04;;;;;;;;;;;;;;;26.49;91.38;98989.34;5055736;28;19959;-56
2022/07/30 00:45:29;;;;;;;;;;;;;;;26.45;91.19;98992.44;5055554;28;19939;-54
2022/07/30 00:47:55;;;;;;;;;;;;;;;26.47;92.03;98985.22;5055683;28;19966;-55
2022/07/30 00:50:20;;;;;;;;;;;;;;;26.47;92.57;98990.50;5054817;28;19924;-53
2022/07/30 00:52:46;;;;;;;;;;;;;;;26.50;93.09;98985.75;5055774;28;20073;-54
2022/07/30 00:55:12;;;;;;;;;;;;;;;26.47;93.40;98986.03;5055296;28;19931;-53
2022/07/30 00:57:37;;;;;;;;;;;;;;;26.45;93.20;98985.34;5054007;28;20609;-52
2022/07/30 01:00:04;;;;;;;;;;;;;;;26.33;93.28;98975.19;5054549;28;19932;-53
2022/07/30 01:02:29;;;;;;;;;;;;;;;26.41;93.20;98975.25;5055035;28;19917;-53
2022/07/30 01:04:54;;;;;;;;;;;;;;;26.28;93.83;98970.34;5054713;28;19916;-53
2022/07/30 01:07:20;;;;;;;;;;;;;;;26.26;94.70;98967.84;5054608;28;19916;-53
2022/07/30 01:09:45;;;;;;;;;;;;;;;26.22;94.89;98971.78;5054406;28;19977;-54
2022/07/30 01:12:18;;;;;;;;;;;;;;;26.12;95.82;98975.47;5055409;28;19978;-53
2022/07/30 01:14:43;;;;;;;;;;;;;;;26.00;95.19;98972.19;5054366;28;19967;-55
2022/07/30 01:17:09;;;;;;;;;;;;;;;25.97;95.69;98969.84;5053822;28;20389;-53
2022/07/30 01:19:54;;;;;;;;;;;;;;;26.01;94.98;98971.22;5054427;28;21562;-54
2022/07/30 01:22:22;;;;;;;;;;;;;;;25.95;95.66;98972.63;5055339;28;19990;-53
2022/07/30 01:24:57;;;;;;;;;;;;;;;25.87;nan;98967.28;5054705;28;19917;-53
2022/07/30 01:27:22;;;;;;;;;;;;;;;25.82;96.24;98969.50;5054681;28;19928;-52
2022/07/30 01:29:47;;;;;;;;;;;;;;;25.82;95.68;98970.34;5053702;28;19920;-56
2022/07/30 01:32:13;;;;;;;;;;;;;;;25.74;96.42;98964.13;5049750;28;20374;-55
2022/07/30 01:34:38;;;;;;;;;;;;;;;25.66;96.86;98968.34;5052070;28;19966;-56
2022/07/30 01:37:03;;;;;;;;;;;;;;;25.60;95.97;98973.34;5052774;28;19920;-52
2022/07/30 01:39:29;;;;;;;;;;;;;;;25.63;94.71;98965.16;5053633;28;19916;-52
2022/07/30 01:41:54;;;;;;;;;;;;;;;25.64;95.72;98970.28;5051749;28;19960;-53
2022/07/30 01:44:20;;;;;;;;;;;;;;;25.67;95.78;98971.78;5052702;28;20039;-52
2022/07/30 01:46:45;;;;;;;;;;;;;;;25.60;96.00;98970.72;5052182;28;20495;-52
2022/07/30 01:49:10;;;;;;;;;;;;;;;25.58;96.27;98962.13;5050890;28;19924;-54
2022/07/30 01:51:36;;;;;;;;;;;;;;;25.55;96.15;98965.88;5052893;28;19962;-53
2022/07/30 01:54:01;;;;;;;;;;;;;;;25.46;96.51;98964.94;5051882;28;19981;-53
2022/07/30 01:56:26;;;;;;;;;;;;;;;25.38;95.63;98959.56;5054091;28;19917;-53
2022/07/30 01:58:53;;;;;;;;;;;;;;;25.32;96.95;98967.25;5050888;28;20947;-53
2022/07/30 02:01:18;;;;;;;;;;;;;;;25.31;97.17;98961.09;5053828;28;20560;-54
2022/07/30 02:03:43;;;;;;;;;;;;;;;25.37;96.99;98960.53;5052421;28;19921;-51
2022/07/30 02:06:10;;;;;;;;;;;;;;;25.37;96.86;98965.81;5051911;28;19920;-53
2022/07/30 02:09:05;;;;;;;;;;;;;;;25.18;98.54;98966.72;5052632;28;20401;-52
2022/07/30 02:14:20;;;;;;;;;;;;;;;25.10;97.64;98977.09;5052350;28;19919;-53
2022/07/30 02:16:47;;;;;;;;;;;;;;;25.05;98.76;98972.25;5051181;28;19956;-53
2022/07/30 02:19:14;;;;;;;;;;;;;;;24.89;99.11;98974.66;5050561;28;19931;-52
2022/07/30 02:21:52;;;;;;;;;;;;;;;24.99;99.75;98972.81;5050937;28;20663;-51
2022/07/30 02:24:18;;;;;;;;;;;;;;;24.98;99.62;98976.44;5051565;28;20749;-52
2022/07/30 02:26:45;;;;;;;;;;;;;;;24.79;100.00;98984.34;5053387;28;19924;-55
2022/07/30 02:29:10;;;;;;;;;;;;;;;25.01;100.00;98981.41;5050108;28;19924;-49
2022/07/30 02:31:35;;;;;;;;;;;;;;;25.08;99.86;98988.75;5050932;28;19917;-52
2022/07/30 02:34:02;;;;;;;;;;;;;;;25.16;99.66;98987.06;5033733;28;19921;-52
2022/07/30 02:36:27;;;;;;;;;;;;;;;25.24;98.42;98987.22;5052236;28;19955;-51
2022/07/30 02:38:53;;;;;;;;;;;;;;;25.21;98.72;98987.50;5052090;28;20392;-53
2022/07/30 02:41:18;;;;;;;;;;;;;;;25.15;98.95;98988.03;5051176;28;20399;-53
2022/07/30 02:43:44;;;;;;;;;;;;;;;25.20;99.07;98992.91;5052434;28;19916;-52
2022/07/30 02:46:09;;;;;;;;;;;;;;;25.28;98.60;98994.84;5052290;28;19978;-52
2022/07/30 02:48:34;;;;;;;;;;;;;;;25.14;97.63;98986.38;5053528;28;21006;-51
2022/07/30 02:51:00;;;;;;;;;;;;;;;25.05;100.00;98989.88;5054093;28;20454;-53
2022/07/30 02:53:25;;;;;;;;;;;;;;;25.15;100.00;98995.94;5056169;28;19931;-55
2022/07/30 02:55:50;;;;;;;;;;;;;;;25.25;100.00;98991.53;5055809;28;19925;-50
2022/07/30 02:58:19;;;;;;;;;;;;;;;25.20;100.00;98990.28;5053324;28;19920;-52
2022/07/30 03:00:45;;;;;;;;;;;;;;;25.19;100.00;98991.25;5054694;28;20259;-54
2022/07/30 03:03:10;;;;;;;;;;;;;;;25.17;100.00;98990.53;5053146;28;19928;-53
2022/07/30 03:05:35;;;;;;;;;;;;;;;25.25;100.00;98988.88;5056259;28;19942;-52
2022/07/30 03:08:01;;;;;;;;;;;;;;;25.07;100.00;98987.94;5054916;28;19932;-53
2022/07/30 03:10:26;;;;;;;;;;;;;;;25.18;100.00;98994.81;5055541;28;19923;-52
2022/07/30 03:12:51;;;;;;;;;;;;;;;25.14;100.00;98990.84;5055024;28;19990;-52
2022/07/30 03:15:17;;;;;;;;;;;;;;;25.09;100.00;98983.34;5053144;28;19940;-52
2022/07/30 03:17:43;;;;;;;;;;;;;;;25.01;98.67;98975.31;5055349;28;19986;-51
2022/07/30 03:20:08;;;;;;;;;;;;;;;25.21;97.86;98966.41;5054530;28;20324;-51
2022/07/30 03:22:35;;;;;;;;;;;;;;;24.54;100.00;98978.69;5054109;28;19966;-53
2022/07/30 03:25:01;;;;;;;;;;;;;;;24.68;100.00;98979.22;5055147;28;20273;-51
2022/07/30 03:27:26;;;;;;;;;;;;;;;24.81;100.00;98977.13;5053817;28;19927;-49
2022/07/30 03:29:51;;;;;;;;;;;;;;;24.94;98.35;98977.69;5054746;28;19924;-51
2022/07/30 03:32:16;;;;;;;;;;;;;;;25.00;98.24;98977.13;5054268;28;20689;-50
2022/07/30 03:34:42;;;;;;;;;;;;;;;25.01;98.06;98976.13;5056297;28;21350;-53
2022/07/30 03:37:07;;;;;;;;;;;;;;;24.96;97.78;98983.66;5054514;28;20345;-50
2022/07/30 03:39:32;;;;;;;;;;;;;;;24.77;99.48;98978.38;5053650;28;19928;-52
2022/07/30 03:41:58;;;;;;;;;;;;;;;24.07;100.00;98988.19;5053276;28;19981;-53
2022/07/30 03:44:23;;;;;;;;;;;;;;;24.93;96.95;98983.09;5055646;28;19962;-51
2022/07/30 03:46:49;;;;;;;;;;;;;;;24.76;97.94;98987.28;5053902;28;19928;-52
2022/07/30 03:49:15;;;;;;;;;;;;;;;24.90;97.41;98984.19;5053566;28;20284;-50
2022/07/30 03:51:40;;;;;;;;;;;;;;;24.35;100.00;98994.44;5054047;28;19916;-53
2022/07/30 03:54:08;;;;;;;;;;;;;;;24.58;99.51;98995.03;5054831;28;19966;-52
2022/07/30 03:56:33;;;;;;;;;;;;;;;24.74;96.83;98994.47;5055722;28;19920;-51
2022/07/30 03:58:58;;;;;;;;;;;;;;;24.65;97.13;98990.06;5053814;28;19985;-52
2022/07/30 04:01:24;;;;;;;;;;;;;;;24.80;98.25;99000.03;5054613;28;19923;-52
2022/07/30 04:03:49;;;;;;;;;;;;;;;24.74;99.76;99002.38;5054535;28;19924;-49
2022/07/30 04:06:15;;;;;;;;;;;;;;;24.79;98.78;99006.28;5055540;28;21109;-53
2022/07/30 04:08:40;;;;;;;;;;;;;;;24.66;99.65;99003.09;5054350;28;21108;-52
2022/07/30 04:11:05;;;;;;;;;;;;;;;24.67;100.00;99006.53;5055151;28;20344;-51
2022/07/30 04:13:30;;;;;;;;;;;;;;;24.59;100.00;99017.78;5054464;28;20352;-48
2022/07/30 04:16:01;;;;;;;;;;;;;;;24.80;99.67;99015.81;5055695;28;20314;-50
2022/07/30 04:18:27;;;;;;;;;;;;;;;24.73;100.00;99024.44;5053283;28;19963;-52
2022/07/30 04:20:52;;;;;;;;;;;;;;;24.71;100.00;99026.38;5051925;28;20354;-51
2022/07/30 04:23:18;;;;;;;;;;;;;;;24.60;100.00;99025.53;5052791;28;20833;-53
2022/07/30 04:25:43;;;;;;;;;;;;;;;24.73;99.39;99027.06;5054118;28;19927;-52
2022/07/30 04:28:09;;;;;;;;;;;;;;;24.45;100.00;99032.16;5052461;28;19924;-54
2022/07/30 04:30:34;;;;;;;;;;;;;;;24.33;100.00;99033.22;5052732;28;20603;-53
2022/07/30 04:33:00;;;;;;;;;;;;;;;24.54;100.00;99034.00;5052647;28;20019;-52
2022/07/30 04:35:29;;;;;;;;;;;;;;;24.76;99.42;99034.69;5054653;28;20605;-52
2022/07/30 04:37:55;;;;;;;;;;;;;;;24.80;100.00;99033.44;5054129;28;19920;-52
2022/07/30 04:40:20;;;;;;;;;;;;;;;24.29;98.72;99037.94;5052898;28;19969;-51
2022/07/30 04:42:45;;;;;;;;;;;;;;;24.65;100.00;99038.28;5054113;28;19916;-54
2022/07/30 04:45:11;;;;;;;;;;;;;;;24.77;100.00;99042.47;5054386;28;19931;-52
2022/07/30 04:47:36;;;;;;;;;;;;;;;24.87;100.00;99037.19;5052875;28;20007;-53
2022/07/30 04:50:01;;;;;;;;;;;;;;;24.77;100.00;99046.88;5051541;28;19932;-52
2022/07/30 04:52:26;;;;;;;;;;;;;;;24.81;100.00;99043.00;5051189;28;19920;-52
2022/07/30 04:54:53;;;;;;;;;;;;;;;24.86;100.00;99039.94;5053401;28;19931;-53
2022/07/30 04:57:18;;;;;;;;;;;;;;;24.94;99.96;99038.28;5053489;28;19920;-51
2022/07/30 04:59:43;;;;;;;;;;;;;;;24.86;100.00;99050.47;5052662;28;19920;-53
2022/07/30 05:02:09;;;;;;;;;;;;;;;24.94;99.62;99048.81;5053081;28;19921;-53
2022/07/30 05:04:34;;;;;;;;;;;;;;;24.85;100.00;99054.91;5053356;28;19951;-53
2022/07/30 05:07:00;;;;;;;;;;;;;;;24.92;99.67;99060.47;5052987;28;20392;-50
2022/07/30 05:09:26;;;;;;;;;;;;;;;24.26;98.10;99058.44;5053114;28;19944;-53
2022/07/30 05:11:54;;;;;;;;;;;;;;;24.79;98.19;99060.72;5051919;28;19929;-52
2022/07/30 05:14:20;;;;;;;;;;;;;;;24.82;99.04;99069.19;5052460;28;19921;-53
2022/07/30 05:16:45;;;;;;;;;;;;;;;24.66;99.33;99066.28;5052306;28;19979;-55
2022/07/30 05:19:10;;;;;;;;;;;;;;;24.85;97.78;99070.72;5051140;28;20125;-52
2022/07/30 05:21:35;;;;;;;;;;;;;;;24.89;98.92;99074.75;5052615;28;20038;-52
2022/07/30 05:24:01;;;;;;;;;;;;;;;25.03;99.35;99071.69;5052737;28;20029;-52
2022/07/30 05:26:26;;;;;;;;;;;;;;;25.22;96.94;99067.41;5052729;28;20820;-51
2022/07/30 05:28:51;;;;;;;;;;;;;;;24.57;100.00;99070.56;5053160;28;19924;-52
2022/07/30 05:31:16;;;;;;;;;;;;;;;24.90;99.55;99068.50;5051904;28;19920;-52
2022/07/30 05:33:42;;;;;;;;;;;;;;;24.82;98.93;99063.94;5052896;28;19925;-52
2022/07/30 05:36:07;;;;;;;;;;;;;;;25.11;99.71;99064.88;5052975;28;19916;-51
2022/07/30 05:38:33;;;;;;;;;;;;;;;25.32;97.02;99065.59;5049371;28;19920;-49
2022/07/30 05:40:58;;;;;;;;;;;;;;;25.18;98.86;99073.88;5052483;28;19922;-51
2022/07/30 05:43:24;;;;;;;;;;;;;;;25.19;100.00;99079.06;5052689;28;19920;-50
2022/07/30 05:45:49;;;;;;;;;;;;;;;25.59;99.24;99085.09;5053098;28;19920;-52
2022/07/30 05:48:14;;;;;;;;;;;;;;;25.58;97.69;99083.44;5051970;28;19970;-50
2022/07/30 05:50:39;;;;;;;;;;;;;;;25.11;97.65;99086.81;5051406;28;19962;-52
2022/07/30 05:53:05;;;;;;;;;;;;;;;25.28;99.77;99093.22;5052579;28;19986;-53
2022/07/30 05:55:30;;;;;;;;;;;;;;;25.19;98.58;99094.06;5052832;28;20440;-51
2022/07/30 05:57:55;;;;;;;;;;;;;;;25.33;97.72;99095.41;5048003;28;19920;-52
2022/07/30 06:00:20;;;;;;;;;;;;;;;25.45;97.78;99089.84;5046373;28;20028;-51
2022/07/30 06:02:46;;;;;;;;;;;;;;;25.26;96.90;99092.50;5050459;28;20089;-52
2022/07/30 06:05:11;;;;;;;;;;;;;;;25.01;98.83;99096.50;5052764;28;19962;-54
2022/07/30 06:07:36;;;;;;;;;;;;;;;25.45;98.65;99100.41;5051568;28;19921;-52
2022/07/30 06:10:02;;;;;;;;;;;;;;;25.37;97.75;99105.53;5051515;28;20043;-53
2022/07/30 06:12:28;;;;;;;;;;;;;;;25.62;97.22;99098.00;5052889;28;19948;-53
2022/07/30 06:14:53;;;;;;;;;;;;;;;25.37;98.99;99107.34;5051973;28;19920;-52
2022/07/30 06:17:18;;;;;;;;;;;;;;;25.95;96.13;99101.13;5053139;28;19948;-52
2022/07/30 06:19:44;;;;;;;;;;;;;;;25.84;94.66;99102.94;5051115;28;19920;-52
2022/07/30 06:22:09;;;;;;;;;;;;;;;26.09;94.41;99108.53;5051622;28;19927;-52
2022/07/30 06:24:35;;;;;;;;;;;;;;;26.12;92.30;99103.00;5050415;28;19921;-53
2022/07/30 06:27:00;;;;;;;;;;;;;;;25.29;95.72;99115.94;5048682;28;20673;-51
2022/07/30 06:29:26;;;;;;;;;;;;;;;25.72;95.14;99104.06;5049841;28;19916;-50
2022/07/30 06:31:51;;;;;;;;;;;;;;;25.15;94.77;99113.72;5050164;28;21117;-53
2022/07/30 06:34:16;;;;;;;;;;;;;;;26.01;95.51;99108.47;5047010;28;19999;-53
2022/07/30 06:36:41;;;;;;;;;;;;;;;26.72;91.46;99104.34;5050497;28;20032;-53
2022/07/30 06:39:07;;;;;;;;;;;;;;;25.69;95.75;99112.28;5050269;28;20066;-51
2022/07/30 06:41:32;;;;;;;;;;;;;;;25.82;96.74;99115.44;5052518;28;19924;-53
2022/07/30 06:43:57;;;;;;;;;;;;;;;25.51;100.00;99121.91;5051553;28;19921;-53
2022/07/30 06:46:22;;;;;;;;;;;;;;;25.76;99.05;99118.63;5052839;28;19924;-53
2022/07/30 06:48:47;;;;;;;;;;;;;;;25.91;97.42;99115.56;5052358;28;19920;-53
2022/07/30 06:51:13;;;;;;;;;;;;;;;24.73;100.00;99124.50;5052627;28;20397;-55
2022/07/30 06:53:38;;;;;;;;;;;;;;;24.88;100.00;99128.41;5050327;28;20744;-53
2022/07/30 06:56:03;;;;;;;;;;;;;;;24.67;100.00;99138.22;5053240;28;21053;-52
2022/07/30 06:58:28;;;;;;;;;;;;;;;24.73;100.00;99135.88;5052288;28;19952;-53
2022/07/30 07:00:54;;;;;;;;;;;;;;;25.18;100.00;99134.50;5051749;28;19935;-53
2022/07/30 07:03:20;;;;;;;;;;;;;;;24.93;100.00;99134.09;5051401;28;19920;-53
2022/07/30 07:05:45;;;;;;;;;;;;;;;24.47;100.00;99135.53;5052602;28;20053;-54
2022/07/30 07:08:10;;;;;;;;;;;;;;;24.43;100.00;99139.38;5052393;28;19924;-54
2022/07/30 07:10:35;;;;;;;;;;;;;;;24.51;100.00;99142.19;5052286;28;19917;-53
2022/07/30 07:13:01;;;;;;;;;;;;;;;25.18;100.00;99123.97;5050078;28;20780;-54
2022/07/30 07:15:26;;;;;;;;;;;;;;;24.68;100.00;99131.97;5045298;28;20636;-52
2022/07/30 07:17:51;;;;;;;;;;;;;;;24.86;100.00;99135.63;5049826;28;20793;-53
2022/07/30 07:20:16;;;;;;;;;;;;;;;24.87;100.00;99136.47;5048955;28;19968;-51
2022/07/30 07:22:42;;;;;;;;;;;;;;;26.16;100.00;99128.13;5049717;28;19924;-54
2022/07/30 07:25:07;;;;;;;;;;;;;;;25.09;100.00;99130.06;5047969;28;19942;-54
2022/07/30 07:27:33;;;;;;;;;;;;;;;25.44;100.00;99138.28;5049731;28;20260;-53
2022/07/30 07:29:58;;;;;;;;;;;;;;;25.22;100.00;99130.66;5052350;28;20029;-53
2022/07/30 07:32:23;;;;;;;;;;;;;;;25.82;100.00;99123.34;5051110;28;19927;-54
2022/07/30 07:34:48;;;;;;;;;;;;;;;25.65;100.00;99127.53;5055628;28;19917;-53
2022/07/30 07:37:14;;;;;;;;;;;;;;;26.32;95.75;99121.38;5055928;28;19984;-53
2022/07/30 07:39:40;;;;;;;;;;;;;;;27.13;95.95;99121.41;5055623;28;19916;-55
2022/07/30 07:42:05;;;;;;;;;;;;;;;25.51;98.24;99140.34;5056186;28;19932;-54
2022/07/30 07:44:30;;;;;;;;;;;;;;;26.43;94.69;99131.72;5056163;28;19916;-54
2022/07/30 07:46:55;;;;;;;;;;;;;;;26.42;94.10;99124.78;5056532;28;19916;-50
2022/07/30 07:49:21;;;;;;;;;;;;;;;26.70;95.18;99126.44;5054228;28;19924;-54
2022/07/30 07:51:46;;;;;;;;;;;;;;;27.69;86.48;99114.91;5055450;28;19979;-53
2022/07/30 07:54:11;;;;;;;;;;;;;;;28.08;85.05;99108.38;5055208;28;19936;-54
2022/07/30 07:56:36;;;;;;;;;;;;;;;28.05;87.08;99109.50;5056099;28;20320;-53
2022/07/30 07:59:02;;;;;;;;;;;;;;;27.60;84.03;99115.00;5053546;28;19991;-55
2022/07/30 08:01:27;;;;;;;;;;;;;;;27.50;84.87;99109.81;5056008;28;19963;-55
2022/07/30 08:03:52;;;;;;;;;;;;;;;27.63;81.00;99104.13;5055176;28;19970;-56
2022/07/30 08:06:17;;;;;;;;;;;;;;;28.02;80.46;99103.72;5052933;28;20043;-55
2022/07/30 08:08:43;;;;;;;;;;;;;;;27.80;82.78;99099.75;5051924;28;19946;-55
2022/07/30 08:11:08;;;;;;;;;;;;;;;28.36;79.59;99101.84;5054488;28;19950;-55
2022/07/30 08:13:33;;;;;;;;;;;;;;;27.85;80.50;99098.34;5051969;28;19920;-55
2022/07/30 08:16:00;;;;;;;;;;;;;;;27.73;84.00;99108.34;5052128;28;19974;-55
2022/07/30 08:18:25;;;;;;;;;;;;;;;27.99;84.11;99106.69;5051795;28;19920;-56
2022/07/30 08:20:50;;;;;;;;;;;;;;;28.44;83.85;99111.66;5050404;28;19925;-56
2022/07/30 08:23:16;;;;;;;;;;;;;;;26.72;87.93;99117.56;5052119;28;19939;-55
2022/07/30 08:25:42;;;;;;;;;;;;;;;27.69;84.62;99109.63;5051438;28;20409;-56
2022/07/30 08:28:07;;;;;;;;;;;;;;;28.30;82.54;99110.44;5051904;28;20043;-55
2022/07/30 08:30:32;;;;;;;;;;;;;;;28.09;82.77;99116.16;5051189;28;19921;-56
2022/07/30 08:32:58;;;;;;;;;;;;;;;28.46;83.76;99106.19;5050051;28;19928;-56
2022/07/30 08:35:23;;;;;;;;;;;;;;;27.51;84.40;99112.31;5052249;28;20023;-56
2022/07/30 08:37:48;;;;;;;;;;;;;;;27.30;89.82;99119.75;5046732;28;19999;-56
2022/07/30 08:40:13;;;;;;;;;;;;;;;27.95;88.51;99120.22;5052517;28;19967;-56
2022/07/30 08:42:39;;;;;;;;;;;;;;;29.24;83.80;99112.97;5050386;28;20785;-56
2022/07/30 08:45:04;;;;;;;;;;;;;;;27.12;88.13;99128.53;5051107;28;19920;-56
2022/07/30 08:47:30;;;;;;;;;;;;;;;26.89;89.11;99124.66;5051097;28;19916;-56
2022/07/30 08:50:00;;;;;;;;;;;;;;;27.80;88.14;99121.75;5054075;28;19931;-56
2022/07/30 08:52:25;;;;;;;;;;;;;;;27.72;85.94;99113.78;5052741;28;19920;-56
2022/07/30 08:54:51;;;;;;;;;;;;;;;28.43;86.36;99117.94;5053216;28;19984;-56
2022/07/30 08:57:16;;;;;;;;;;;;;;;28.68;84.89;99124.16;5053466;28;20362;-56
2022/07/30 08:59:41;;;;;;;;;;;;;;;28.00;85.86;99121.56;5050501;28;20277;-56
2022/07/30 09:02:06;;;;;;;;;;;;;;;28.62;85.85;99116.03;5051929;28;19920;-56
2022/07/30 09:04:32;;;;;;;;;;;;;;;28.17;83.16;99128.59;5051863;28;20332;-56
2022/07/30 09:06:57;;;;;;;;;;;;;;;28.45;84.49;99126.56;5051010;28;19933;-56
2022/07/30 09:09:22;;;;;;;;;;;;;;;28.27;79.91;99118.69;5052045;28;19939;-53
2022/07/30 09:11:48;;;;;;;;;;;;;;;29.52;76.83;99124.91;5052849;28;19913;-57
2022/07/30 09:14:13;;;;;;;;;;;;;;;30.12;78.08;99125.44;5048293;28;19931;-57
2022/07/30 09:16:39;;;;;;;;;;;;;;;28.18;84.60;99145.31;5052393;28;19921;-56
2022/07/30 09:19:11;;;;;;;;;;;;;;;26.35;89.38;99142.22;5052224;28;20840;-56
2022/07/30 09:21:37;;;;;;;;;;;;;;;28.82;86.01;99133.28;5052249;28;19916;-56
2022/07/30 09:24:02;;;;;;;;;;;;;;;29.60;81.23;99124.03;5053927;28;19927;-57
2022/07/30 09:26:28;;;;;;;;;;;;;;;28.38;86.84;99140.59;5052689;28;19917;-56
2022/07/30 09:28:53;;;;;;;;;;;;;;;28.56;86.86;99134.25;5051548;28;20115;-57
2022/07/30 09:31:19;;;;;;;;;;;;;;;29.53;82.75;99131.84;5050507;28;19971;-56
2022/07/30 09:33:44;;;;;;;;;;;;;;;29.07;83.43;99138.63;5051853;28;19930;-57
2022/07/30 09:36:11;;;;;;;;;;;;;;;29.96;79.78;99132.44;5051572;28;19925;-56
2022/07/30 09:38:44;;;;;;;;;;;;;;;29.51;76.85;99133.84;5052837;28;20006;-57
2022/07/30 09:41:09;;;;;;;;;;;;;;;29.89;77.38;99128.00;5049966;28;20302;-56
2022/07/30 09:43:42;;;;;;;;;;;;;;;29.92;76.56;99136.44;5050842;28;20030;-57
2022/07/30 09:46:07;;;;;;;;;;;;;;;28.76;81.28;99144.53;5052455;28;19916;-56
2022/07/30 09:48:32;;;;;;;;;;;;;;;29.53;83.28;99134.50;5052398;28;19924;-57
2022/07/30 09:50:57;;;;;;;;;;;;;;;29.05;83.31;99149.41;5052517;28;19917;-57
2022/07/30 09:53:23;;;;;;;;;;;;;;;29.46;82.71;99146.78;5052688;28;19921;-57
2022/07/30 09:55:48;;;;;;;;;;;;;;;30.19;80.59;99143.16;5053503;28;19948;-57
2022/07/30 09:58:13;;;;;;;;;;;;;;;30.84;78.71;99142.06;5052186;28;20004;-57
2022/07/30 10:00:39;;;;;;;;;;;;;;;29.89;79.33;99152.72;5051091;28;19978;-56
2022/07/30 10:03:24;;;;;;;;;;;;;;;31.14;76.66;99142.19;5052515;28;19979;-56
2022/07/30 10:05:56;;;;;;;;;;;;;;;27.53;88.04;99165.09;5052682;28;19992;-56
2022/07/30 10:08:37;;;;;;;;;;;;;;;28.58;81.23;99157.94;5051320;28;19925;-56
2022/07/30 10:11:02;;;;;;;;;;;;;;;31.14;73.96;99155.50;5047498;28;19928;-56
2022/07/30 10:13:27;;;;;;;;;;;;;;;31.32;69.66;99155.19;5050023;28;19917;-56
2022/07/30 10:15:53;;;;;;;;;;;;;;;31.51;69.88;99148.56;5050417;28;19924;-56
2022/07/30 10:18:18;;;;;;;;;;;;;;;29.00;74.00;99157.03;5050061;28;19917;-56
2022/07/30 10:20:43;;;;;;;;;;;;;;;28.71;77.54;99158.28;5049502;28;19923;-56
2022/07/30 10:23:09;;;;;;;;;;;;;;;29.91;78.93;99150.72;5051988;28;20748;-57
2022/07/30 10:25:34;;;;;;;;;;;;;;;29.28;75.58;99152.25;5054327;28;20384;-56
2022/07/30 10:27:59;;;;;;;;;;;;;;;28.84;79.31;99157.00;5034687;28;21108;-57
2022/07/30 10:30:26;;;;;;;;;;;;;;;29.04;80.77;99147.75;5052326;28;19977;-56
2022/07/30 10:32:51;;;;;;;;;;;;;;;28.93;81.47;99162.16;5053546;28;20456;-57
2022/07/30 10:35:16;;;;;;;;;;;;;;;27.86;81.04;99152.91;5053922;28;19979;-56
2022/07/30 10:37:42;;;;;;;;;;;;;;;28.13;78.36;99154.56;5054254;28;19927;-56
2022/07/30 10:40:13;;;;;;;;;;;;;;;29.66;71.34;99157.06;5051785;28;20267;-56
2022/07/30 10:42:46;;;;;;;;;;;;;;;29.99;69.58;99137.44;5051552;28;20919;-57
2022/07/30 10:45:21;;;;;;;;;;;;;;;31.18;63.37;99143.50;5052530;28;19917;-57
2022/07/30 10:47:47;;;;;;;;;;;;;;;28.78;65.18;99154.00;5053146;28;20003;-56
2022/07/30 10:50:13;;;;;;;;;;;;;;;30.44;63.68;99141.25;5050917;28;19951;-57
2022/07/30 10:52:42;;;;;;;;;;;;;;;30.84;58.83;99144.75;5053000;28;19916;-56
2022/07/30 10:55:11;;;;;;;;;;;;;;;30.17;57.70;99139.03;5052921;28;19916;-56
2022/07/30 10:57:36;;;;;;;;;;;;;;;31.03;54.80;99139.94;5053251;28;19916;-56
2022/07/30 11:00:02;;;;;;;;;;;;;;;29.94;58.65;99133.63;5051364;28;20537;-57
2022/07/30 11:02:27;;;;;;;;;;;;;;;29.53;53.40;99139.81;5052394;28;19917;-57
2022/07/30 11:05:11;;;;;;;;;;;;;;;31.75;49.33;99128.03;5051014;28;19965;-57
2022/07/30 11:07:37;;;;;;;;;;;;;;;30.57;53.71;99139.88;5049944;28;20734;-57
2022/07/30 11:10:02;;;;;;;;;;;;;;;32.46;52.39;99139.88;5054737;28;19924;-58
2022/07/30 11:12:47;;;;;;;;;;;;;;;31.29;45.26;99144.06;5056466;28;19923;-57
2022/07/30 11:15:15;;;;;;;;;;;;;;;29.15;51.20;99144.81;5051514;28;19981;-57
2022/07/30 11:17:57;;;;;;;;;;;;;;;30.17;51.43;99133.72;5055422;28;20027;-57
2022/07/30 11:20:22;;;;;;;;;;;;;;;31.02;50.20;99138.31;5056264;28;20012;-58
2022/07/30 11:22:48;;;;;;;;;;;;;;;30.54;52.55;99150.84;5055750;28;20946;-58
2022/07/30 11:25:26;;;;;;;;;;;;;;;33.02;45.81;99135.78;5055674;28;19932;-57
2022/07/30 11:27:51;;;;;;;;;;;;;;;31.89;48.47;99143.22;5054622;28;19924;-57
2022/07/30 11:30:17;;;;;;;;;;;;;;;32.67;46.31;99138.28;5054657;28;19931;-58
2022/07/30 11:32:43;;;;;;;;;;;;;;;32.11;48.73;99132.66;5055353;28;19926;-57
2022/07/30 11:35:20;;;;;;;;;;;;;;;31.72;52.77;99139.06;5055091;28;19920;-58
2022/07/30 11:37:54;;;;;;;;;;;;;;;30.77;48.62;99135.78;5054394;28;21067;-58
2022/07/30 11:40:19;;;;;;;;;;;;;;;31.38;50.85;99132.34;5055112;28;20023;-58
2022/07/30 11:42:45;;;;;;;;;;;;;;;30.78;53.08;99140.09;5055002;28;20542;-58
2022/07/30 11:45:16;;;;;;;;;;;;;;;31.14;47.29;99136.06;5053841;28;19932;-58
2022/07/30 11:47:42;;;;;;;;;;;;;;;33.07;40.28;99128.03;5054736;28;20001;-57
2022/07/30 11:50:07;;;;;;;;;;;;;;;30.28;46.66;99136.03;5053446;28;19921;-58
2022/07/30 11:52:32;;;;;;;;;;;;;;;33.26;45.17;99132.75;5051411;28;19942;-58
2022/07/30 11:54:57;;;;;;;;;;;;;;;34.61;39.52;99120.00;5054288;28;19974;-58
2022/07/30 11:57:39;;;;;;;;;;;;;;;31.94;43.43;99132.81;5053581;28;19946;-58
2022/07/30 12:00:04;;;;;;;;;;;;;;;35.17;39.72;99113.50;5055282;28;19982;-58
2022/07/30 12:02:29;;;;;;;;;;;;;;;33.03;43.80;99127.59;5056410;28;19920;-58
2022/07/30 12:04:55;;;;;;;;;;;;;;;29.73;49.21;99131.53;5054418;28;20883;-57
2022/07/30 12:07:23;;;;;;;;;;;;;;;31.03;51.43;99135.44;5055926;28;19952;-58
2022/07/30 12:09:48;;;;;;;;;;;;;;;33.31;42.44;99130.31;5055662;28;19920;-58
2022/07/30 12:12:23;;;;;;;;;;;;;;;33.63;43.82;99122.78;5054346;28;19930;-57
2022/07/30 12:14:48;;;;;;;;;;;;;;;33.20;39.71;99124.69;5055397;28;19916;-58
2022/07/30 12:17:13;;;;;;;;;;;;;;;31.55;45.14;99123.25;5054596;28;20447;-58
2022/07/30 12:19:43;;;;;;;;;;;;;;;32.41;45.33;99122.78;5053812;28;19969;-58
2022/07/30 12:22:08;;;;;;;;;;;;;;;31.45;42.65;99122.66;5054931;28;19920;-58
2022/07/30 12:24:33;;;;;;;;;;;;;;;33.83;42.52;99116.75;5055379;28;19927;-58
2022/07/30 12:27:05;;;;;;;;;;;;;;;34.57;39.18;99114.19;5055267;28;19920;-58
2022/07/30 12:29:31;;;;;;;;;;;;;;;33.88;43.39;99125.00;5052519;28;19924;-58
2022/07/30 12:31:56;;;;;;;;;;;;;;;33.98;40.50;99120.09;5054601;28;19927;-58
2022/07/30 12:34:22;;;;;;;;;;;;;;;32.18;42.65;99112.25;5053122;28;19920;-58
2022/07/30 12:36:47;;;;;;;;;;;;;;;34.26;42.82;99116.53;5053569;28;19928;-58
2022/07/30 12:39:23;;;;;;;;;;;;;;;34.73;40.80;99106.84;5052737;28;19920;-59
2022/07/30 12:41:49;;;;;;;;;;;;;;;34.00;40.55;99112.72;5053229;28;20032;-58
2022/07/30 12:44:33;;;;;;;;;;;;;;;31.54;44.52;99118.91;5055244;28;20701;-58